Terminal Aerodrome Forecast
Issued by NWS

Home | Current Version | Previous Version | Text Only | Print | Product List | Glossary On
Versions: 1 2 3 4 5 6 7 8 9 10 11 12
429
FTUS45 KABQ 172322
TAFSAF
TAF
KSAF 172322Z 1800/1824 25008KT P6SM BKN120
     FM180200 VRB05KT P6SM SCT120
     FM180900 36010KT P6SM FEW120
     FM181800 26008KT P6SM FEW120=

USA.gov is the U.S. government's official web portal to all federal, state and local government web resources and services.